Terminal Aerodrome Forecast
Issued by NWS Greer, SC

Home | Current Version | Previous Version | Text Only | Print | Product List | Glossary On
Versions: 1 2 3 4 5 6 7 8 9 10 11 12 13 14 15 16 17 18 19 20 21 22 23 24 25 26 27 28 29 30 31 32 33 34 35 36
182
FTUS42 KGSP 292339
TAFAVL
TAF
KAVL 292339Z 3000/3024 34005KT P6SM -SHRA OVC060
     FM300300 VRB02KT P6SM SCT050 BKN100
     FM301100 32003KT 1 1/2SM BR SCT003 OVC035
     FM301300 33005KT P6SM BKN025
     FM301500 34006KT P6SM SCT045 PROB30 3017/3020 4SM -TSRA
      OVC040CB
     FM302000 30007KT P6SM VCTS SCT040CB BKN090=

USA.gov is the U.S. government's official web portal to all federal, state and local government web resources and services.